sensor_id;sensor_type;location;lat;lon;timestamp;pressure;altitude;pressure_sealevel;temperature;humidity
61805;BME280;47725;47.912;7.356;2022-07-21T00:00:57;99655.36;;;28.23;45.00
61805;BME280;47725;47.912;7.356;2022-07-21T00:04:57;99657.45;;;28.22;45.06
61805;BME280;47725;47.912;7.356;2022-07-21T00:08:57;99659.33;;;28.21;45.14
61805;BME280;47725;47.912;7.356;2022-07-21T00:12:57;99660.83;;;28.21;45.11
61805;BME280;47725;47.912;7.356;2022-07-21T00:16:57;99660.91;;;28.24;44.31
61805;BME280;47725;47.912;7.356;2022-07-21T00:20:58;99660.13;;;28.34;43.97
61805;BME280;47725;47.912;7.356;2022-07-21T00:24:57;99658.90;;;28.42;43.88
61805;BME280;47725;47.912;7.356;2022-07-21T00:28:57;99657.12;;;28.47;43.99
61805;BME280;47725;47.912;7.356;2022-07-21T00:32:57;99656.01;;;28.42;45.03
61805;BME280;47725;47.912;7.356;2022-07-21T00:36:57;99655.89;;;28.37;45.15
61805;BME280;47725;47.912;7.356;2022-07-21T00:40:57;99655.63;;;28.33;45.23
61805;BME280;47725;47.912;7.356;2022-07-21T00:44:58;99656.21;;;28.30;45.23
61805;BME280;47725;47.912;7.356;2022-07-21T00:48:57;99657.56;;;28.28;45.26
61805;BME280;47725;47.912;7.356;2022-07-21T00:52:57;99660.03;;;28.26;45.26
61805;BME280;47725;47.912;7.356;2022-07-21T00:56:57;99662.91;;;28.28;44.79
61805;BME280;47725;47.912;7.356;2022-07-21T01:00:57;99663.79;;;28.36;44.13
61805;BME280;47725;47.912;7.356;2022-07-21T01:04:57;99663.06;;;28.44;44.06
61805;BME280;47725;47.912;7.356;2022-07-21T01:08:57;99661.98;;;28.44;45.00
61805;BME280;47725;47.912;7.356;2022-07-21T01:12:58;99659.88;;;28.48;44.21
61805;BME280;47725;47.912;7.356;2022-07-21T01:16:57;99657.14;;;28.52;44.14
61805;BME280;47725;47.912;7.356;2022-07-21T01:20:58;99656.25;;;28.56;44.15
61805;BME280;47725;47.912;7.356;2022-07-21T01:24:57;99656.73;;;28.49;45.20
61805;BME280;47725;47.912;7.356;2022-07-21T01:28:57;99655.42;;;28.43;45.32
61805;BME280;47725;47.912;7.356;2022-07-21T01:32:57;99653.44;;;28.37;45.41
61805;BME280;47725;47.912;7.356;2022-07-21T01:36:57;99651.93;;;28.33;45.45
61805;BME280;47725;47.912;7.356;2022-07-21T01:40:58;99650.58;;;28.29;45.45
61805;BME280;47725;47.912;7.356;2022-07-21T01:44:57;99648.95;;;28.26;45.41
61805;BME280;47725;47.912;7.356;2022-07-21T01:48:57;99648.03;;;28.28;44.84
61805;BME280;47725;47.912;7.356;2022-07-21T01:52:58;99646.59;;;28.36;44.19
61805;BME280;47725;47.912;7.356;2022-07-21T01:56:57;99644.92;;;28.44;44.11
61805;BME280;47725;47.912;7.356;2022-07-21T02:00:57;99645.83;;;28.50;44.16
61805;BME280;47725;47.912;7.356;2022-07-21T02:04:57;99646.09;;;28.54;44.16
61805;BME280;47725;47.912;7.356;2022-07-21T02:08:57;99647.60;;;28.58;44.18
61805;BME280;47725;47.912;7.356;2022-07-21T02:12:57;99649.16;;;28.60;44.17
61805;BME280;47725;47.912;7.356;2022-07-21T02:16:57;99652.45;;;28.61;44.21
61805;BME280;47725;47.912;7.356;2022-07-21T02:20:57;99654.66;;;28.62;44.17
61805;BME280;47725;47.912;7.356;2022-07-21T02:24:57;99657.01;;;28.63;44.19
61805;BME280;47725;47.912;7.356;2022-07-21T02:28:57;99657.59;;;28.63;44.18
61805;BME280;47725;47.912;7.356;2022-07-21T02:32:57;99657.67;;;28.63;44.22
61805;BME280;47725;47.912;7.356;2022-07-21T02:36:57;99658.18;;;28.63;44.21
61805;BME280;47725;47.912;7.356;2022-07-21T02:40:57;99659.59;;;28.63;44.28
61805;BME280;47725;47.912;7.356;2022-07-21T02:44:57;99660.60;;;28.63;44.18
61805;BME280;47725;47.912;7.356;2022-07-21T02:48:57;99662.19;;;28.63;44.17
61805;BME280;47725;47.912;7.356;2022-07-21T02:52:59;99663.36;;;28.63;44.16
61805;BME280;47725;47.912;7.356;2022-07-21T02:56:57;99664.20;;;28.63;44.15
61805;BME280;47725;47.912;7.356;2022-07-21T03:01:01;99665.28;;;28.63;44.15
61805;BME280;47725;47.912;7.356;2022-07-21T03:04:57;99666.20;;;28.62;44.17
61805;BME280;47725;47.912;7.356;2022-07-21T03:08:57;99666.96;;;28.62;44.15
61805;BME280;47725;47.912;7.356;2022-07-21T03:12:57;99667.38;;;28.62;44.11
61805;BME280;47725;47.912;7.356;2022-07-21T03:16:57;99665.58;;;28.62;44.09
61805;BME280;47725;47.912;7.356;2022-07-21T03:20:57;99663.83;;;28.61;44.12
61805;BME280;47725;47.912;7.356;2022-07-21T03:24:57;99661.49;;;28.61;44.09
61805;BME280;47725;47.912;7.356;2022-07-21T03:28:57;99660.78;;;28.60;44.14
61805;BME280;47725;47.912;7.356;2022-07-21T03:32:58;99662.79;;;28.59;44.14
61805;BME280;47725;47.912;7.356;2022-07-21T03:36:57;99664.34;;;28.59;44.14
61805;BME280;47725;47.912;7.356;2022-07-21T03:40:57;99664.06;;;28.58;44.13
61805;BME280;47725;47.912;7.356;2022-07-21T03:44:57;99663.61;;;28.57;44.09
61805;BME280;47725;47.912;7.356;2022-07-21T03:48:57;99663.44;;;28.56;44.09
61805;BME280;47725;47.912;7.356;2022-07-21T03:52:57;99663.73;;;28.55;44.06
61805;BME280;47725;47.912;7.356;2022-07-21T03:56:57;99664.90;;;28.55;44.05
61805;BME280;47725;47.912;7.356;2022-07-21T04:00:58;99667.02;;;28.49;44.86
61805;BME280;47725;47.912;7.356;2022-07-21T04:04:57;99670.34;;;28.44;44.40
61805;BME280;47725;47.912;7.356;2022-07-21T04:08:57;99674.11;;;28.38;45.22
61805;BME280;47725;47.912;7.356;2022-07-21T04:12:58;99674.40;;;28.25;45.58
61805;BME280;47725;47.912;7.356;2022-07-21T04:16:57;99673.69;;;28.11;45.78
61805;BME280;47725;47.912;7.356;2022-07-21T04:20:57;99674.16;;;27.99;45.64
61805;BME280;47725;47.912;7.356;2022-07-21T04:24:57;99674.64;;;27.84;46.29
61805;BME280;47725;47.912;7.356;2022-07-21T04:28:57;99675.94;;;27.70;46.53
61805;BME280;47725;47.912;7.356;2022-07-21T04:32:57;99677.15;;;27.56;46.77
61805;BME280;47725;47.912;7.356;2022-07-21T04:36:57;99678.64;;;27.44;46.78
61805;BME280;47725;47.912;7.356;2022-07-21T04:40:57;99679.22;;;27.35;46.78
61805;BME280;47725;47.912;7.356;2022-07-21T04:44:57;99680.14;;;27.30;46.20
61805;BME280;47725;47.912;7.356;2022-07-21T04:48:57;99681.59;;;27.23;46.98
61805;BME280;47725;47.912;7.356;2022-07-21T04:52:57;99684.31;;;27.13;47.35
61805;BME280;47725;47.912;7.356;2022-07-21T04:56:57;99688.55;;;27.04;47.52
61805;BME280;47725;47.912;7.356;2022-07-21T05:00:57;99694.98;;;26.96;47.59
61805;BME280;47725;47.912;7.356;2022-07-21T05:04:57;99700.80;;;26.89;47.58
61805;BME280;47725;47.912;7.356;2022-07-21T05:08:57;99706.23;;;26.82;47.99
61805;BME280;47725;47.912;7.356;2022-07-21T05:12:57;99710.29;;;26.76;47.77
61805;BME280;47725;47.912;7.356;2022-07-21T05:16:57;99713.64;;;26.71;47.77
61805;BME280;47725;47.912;7.356;2022-07-21T05:20:57;99716.67;;;26.67;47.78
61805;BME280;47725;47.912;7.356;2022-07-21T05:24:57;99718.28;;;26.63;47.73
61805;BME280;47725;47.912;7.356;2022-07-21T05:28:57;99717.05;;;26.59;47.89
61805;BME280;47725;47.912;7.356;2022-07-21T05:32:57;99716.66;;;26.54;48.02
61805;BME280;47725;47.912;7.356;2022-07-21T05:36:57;99717.21;;;26.56;47.43
61805;BME280;47725;47.912;7.356;2022-07-21T05:40:57;99716.44;;;26.52;48.28
61805;BME280;47725;47.912;7.356;2022-07-21T05:44:57;99716.88;;;26.51;47.92
61805;BME280;47725;47.912;7.356;2022-07-21T05:48:57;99717.88;;;26.48;48.71
61805;BME280;47725;47.912;7.356;2022-07-21T05:52:57;99720.34;;;26.45;48.13
61805;BME280;47725;47.912;7.356;2022-07-21T05:56:57;99722.41;;;26.47;47.96
61805;BME280;47725;47.912;7.356;2022-07-21T06:00:57;99724.39;;;26.44;49.14
61805;BME280;47725;47.912;7.356;2022-07-21T06:04:57;99726.10;;;26.38;48.91
61805;BME280;47725;47.912;7.356;2022-07-21T06:08:57;99728.42;;;26.30;49.61
61805;BME280;47725;47.912;7.356;2022-07-21T06:12:57;99731.31;;;26.24;49.54
61805;BME280;47725;47.912;7.356;2022-07-21T06:16:57;99733.04;;;26.21;49.75
61805;BME280;47725;47.912;7.356;2022-07-21T06:20:57;99735.44;;;26.16;50.16
61805;BME280;47725;47.912;7.356;2022-07-21T06:24:57;99737.13;;;26.11;50.00
61805;BME280;47725;47.912;7.356;2022-07-21T06:28:57;99738.62;;;26.11;49.77
61805;BME280;47725;47.912;7.356;2022-07-21T06:32:58;99740.67;;;26.12;49.91
61805;BME280;47725;47.912;7.356;2022-07-21T06:36:57;99743.81;;;26.10;50.50
61805;BME280;47725;47.912;7.356;2022-07-21T06:40:57;99745.48;;;26.10;50.45
61805;BME280;47725;47.912;7.356;2022-07-21T06:44:57;99746.70;;;26.12;50.64
61805;BME280;47725;47.912;7.356;2022-07-21T06:48:57;99747.55;;;26.24;49.17
61805;BME280;47725;47.912;7.356;2022-07-21T06:52:57;99749.30;;;26.37;48.91
61805;BME280;47725;47.912;7.356;2022-07-21T06:56:57;99750.27;;;26.45;49.00
61805;BME280;47725;47.912;7.356;2022-07-21T07:00:57;99749.71;;;26.49;49.79
61805;BME280;47725;47.912;7.356;2022-07-21T07:04:57;99751.68;;;26.45;50.62
61805;BME280;47725;47.912;7.356;2022-07-21T07:08:57;99753.79;;;26.41;50.89
61805;BME280;47725;47.912;7.356;2022-07-21T07:12:57;99755.85;;;26.40;50.40
61805;BME280;47725;47.912;7.356;2022-07-21T07:16:57;99757.69;;;26.40;50.53
61805;BME280;47725;47.912;7.356;2022-07-21T07:20:57;99758.95;;;26.41;50.50
61805;BME280;47725;47.912;7.356;2022-07-21T07:24:57;99760.83;;;26.42;50.24
61805;BME280;47725;47.912;7.356;2022-07-21T07:28:57;99762.19;;;26.40;50.45
61805;BME280;47725;47.912;7.356;2022-07-21T07:32:57;99763.18;;;26.38;50.42
61805;BME280;47725;47.912;7.356;2022-07-21T07:36:57;99764.59;;;26.37;50.34
61805;BME280;47725;47.912;7.356;2022-07-21T07:40:57;99764.92;;;26.38;50.15
61805;BME280;47725;47.912;7.356;2022-07-21T07:44:57;99764.43;;;26.40;49.89
61805;BME280;47725;47.912;7.356;2022-07-21T07:48:57;99763.67;;;26.45;49.61
61805;BME280;47725;47.912;7.356;2022-07-21T07:52:57;99763.53;;;26.48;49.20
61805;BME280;47725;47.912;7.356;2022-07-21T07:56:57;99762.05;;;26.51;49.23
61805;BME280;47725;47.912;7.356;2022-07-21T08:00:57;99761.27;;;26.53;49.22
61805;BME280;47725;47.912;7.356;2022-07-21T08:04:57;99760.55;;;26.56;48.97
61805;BME280;47725;47.912;7.356;2022-07-21T08:08:57;99759.81;;;26.59;49.15
61805;BME280;47725;47.912;7.356;2022-07-21T08:12:57;99758.04;;;26.63;48.91
61805;BME280;47725;47.912;7.356;2022-07-21T08:16:57;99757.35;;;26.69;48.61
61805;BME280;47725;47.912;7.356;2022-07-21T08:20:57;99756.39;;;26.76;48.16
61805;BME280;47725;47.912;7.356;2022-07-21T08:24:57;99755.31;;;26.84;48.02
61805;BME280;47725;47.912;7.356;2022-07-21T08:28:57;99753.55;;;26.91;47.69
61805;BME280;47725;47.912;7.356;2022-07-21T08:32:57;99751.98;;;26.97;47.46
61805;BME280;47725;47.912;7.356;2022-07-21T08:36:57;99751.11;;;27.07;46.50
61805;BME280;47725;47.912;7.356;2022-07-21T08:40:57;99751.08;;;27.23;45.90
61805;BME280;47725;47.912;7.356;2022-07-21T08:44:57;99751.64;;;27.31;45.43
61805;BME280;47725;47.912;7.356;2022-07-21T08:48:57;99751.59;;;27.31;46.26
61805;BME280;47725;47.912;7.356;2022-07-21T08:52:57;99752.00;;;27.25;46.62
61805;BME280;47725;47.912;7.356;2022-07-21T08:56:57;99753.16;;;27.22;46.92
61805;BME280;47725;47.912;7.356;2022-07-21T09:00:57;99753.08;;;27.23;46.01
61805;BME280;47725;47.912;7.356;2022-07-21T09:04:57;99752.82;;;27.22;46.37
61805;BME280;47725;47.912;7.356;2022-07-21T09:08:57;99752.19;;;27.20;46.37
61805;BME280;47725;47.912;7.356;2022-07-21T09:12:59;99751.98;;;27.20;46.70
61805;BME280;47725;47.912;7.356;2022-07-21T09:16:58;99751.84;;;27.28;45.41
61805;BME280;47725;47.912;7.356;2022-07-21T09:20:57;99752.78;;;27.39;44.66
61805;BME280;47725;47.912;7.356;2022-07-21T09:24:57;99753.92;;;27.46;44.89
61805;BME280;47725;47.912;7.356;2022-07-21T09:29:08;99754.35;;;27.51;44.60
61805;BME280;47725;47.912;7.356;2022-07-21T09:32:57;99753.60;;;27.54;44.42
61805;BME280;47725;47.912;7.356;2022-07-21T09:36:57;99753.23;;;27.57;44.15
61805;BME280;47725;47.912;7.356;2022-07-21T09:41:07;99752.20;;;27.60;44.25
61805;BME280;47725;47.912;7.356;2022-07-21T09:44:58;99750.06;;;27.64;43.81
61805;BME280;47725;47.912;7.356;2022-07-21T09:48:58;99747.49;;;27.69;43.68
61805;BME280;47725;47.912;7.356;2022-07-21T09:52:57;99745.15;;;27.76;43.72
61805;BME280;47725;47.912;7.356;2022-07-21T09:56:57;99742.74;;;27.82;43.90
61805;BME280;47725;47.912;7.356;2022-07-21T10:00:57;99741.44;;;27.87;43.61
61805;BME280;47725;47.912;7.356;2022-07-21T10:04:58;99740.90;;;27.91;43.62
61805;BME280;47725;47.912;7.356;2022-07-21T10:08:58;99738.98;;;27.95;43.47
61805;BME280;47725;47.912;7.356;2022-07-21T10:12:57;99737.55;;;27.99;43.42
61805;BME280;47725;47.912;7.356;2022-07-21T10:16:57;99735.25;;;28.01;43.32
61805;BME280;47725;47.912;7.356;2022-07-21T10:20:59;99732.29;;;28.03;43.16
61805;BME280;47725;47.912;7.356;2022-07-21T10:24:57;99729.78;;;28.03;43.07
61805;BME280;47725;47.912;7.356;2022-07-21T10:28:57;99727.23;;;28.04;43.04
61805;BME280;47725;47.912;7.356;2022-07-21T10:32:57;99725.48;;;28.05;42.96
61805;BME280;47725;47.912;7.356;2022-07-21T10:36:57;99722.85;;;28.05;42.85
61805;BME280;47725;47.912;7.356;2022-07-21T10:40:58;99720.67;;;28.06;42.79
61805;BME280;47725;47.912;7.356;2022-07-21T10:44:57;99719.17;;;28.08;43.01
61805;BME280;47725;47.912;7.356;2022-07-21T10:48:57;99717.41;;;28.12;43.07
61805;BME280;47725;47.912;7.356;2022-07-21T10:53:00;99715.45;;;28.17;43.19
61805;BME280;47725;47.912;7.356;2022-07-21T10:57:23;99713.34;;;28.22;43.24
61805;BME280;47725;47.912;7.356;2022-07-21T11:00:57;99710.62;;;28.27;43.20
61805;BME280;47725;47.912;7.356;2022-07-21T11:05:06;99708.73;;;28.32;43.22
61805;BME280;47725;47.912;7.356;2022-07-21T11:09:07;99706.22;;;28.35;43.37
61805;BME280;47725;47.912;7.356;2022-07-21T11:12:57;99704.50;;;28.37;43.65
61805;BME280;47725;47.912;7.356;2022-07-21T11:16:57;99701.49;;;28.37;43.82
61805;BME280;47725;47.912;7.356;2022-07-21T11:25:00;99695.29;;;28.36;43.99
61805;BME280;47725;47.912;7.356;2022-07-21T11:29:03;99692.10;;;28.35;44.06
61805;BME280;47725;47.912;7.356;2022-07-21T11:32:57;99688.75;;;28.35;44.13
61805;BME280;47725;47.912;7.356;2022-07-21T11:36:58;99685.27;;;28.36;44.18
61805;BME280;47725;47.912;7.356;2022-07-21T11:41:15;99680.27;;;28.36;44.25
61805;BME280;47725;47.912;7.356;2022-07-21T11:44:57;99675.83;;;28.37;44.27
61805;BME280;47725;47.912;7.356;2022-07-21T11:49:15;99672.03;;;28.38;44.39
61805;BME280;47725;47.912;7.356;2022-07-21T11:52:57;99668.02;;;28.39;44.39
61805;BME280;47725;47.912;7.356;2022-07-21T11:56:57;99666.30;;;28.39;44.64
61805;BME280;47725;47.912;7.356;2022-07-21T12:01:04;99663.55;;;28.40;44.73
61805;BME280;47725;47.912;7.356;2022-07-21T12:05:03;99660.91;;;28.41;44.84
61805;BME280;47725;47.912;7.356;2022-07-21T12:08:57;99657.70;;;28.47;43.97
61805;BME280;47725;47.912;7.356;2022-07-21T12:13:01;99654.10;;;28.51;44.44
61805;BME280;47725;47.912;7.356;2022-07-21T12:16:57;99649.73;;;28.53;44.11
61805;BME280;47725;47.912;7.356;2022-07-21T12:21:00;99645.79;;;28.57;44.08
61805;BME280;47725;47.912;7.356;2022-07-21T12:24:57;99641.47;;;28.54;44.85
61805;BME280;47725;47.912;7.356;2022-07-21T12:28:57;99637.50;;;28.51;44.87
61805;BME280;47725;47.912;7.356;2022-07-21T12:33:07;99633.08;;;28.49;44.84
61805;BME280;47725;47.912;7.356;2022-07-21T12:36:57;99629.38;;;28.48;44.82
61805;BME280;47725;47.912;7.356;2022-07-21T12:40:57;99626.08;;;28.46;44.87
61805;BME280;47725;47.912;7.356;2022-07-21T12:44:57;99623.15;;;28.46;44.81
61805;BME280;47725;47.912;7.356;2022-07-21T12:52:57;99618.25;;;28.47;44.69
61805;BME280;47725;47.912;7.356;2022-07-21T12:56:57;99617.58;;;28.48;44.65
61805;BME280;47725;47.912;7.356;2022-07-21T13:00:57;99616.62;;;28.49;44.50
61805;BME280;47725;47.912;7.356;2022-07-21T13:04:57;99615.90;;;28.50;44.45
61805;BME280;47725;47.912;7.356;2022-07-21T13:08:57;99615.31;;;28.51;44.46
61805;BME280;47725;47.912;7.356;2022-07-21T13:12:57;99614.01;;;28.51;44.45
61805;BME280;47725;47.912;7.356;2022-07-21T13:16:57;99613.84;;;28.52;44.45
61805;BME280;47725;47.912;7.356;2022-07-21T13:20:57;99612.80;;;28.53;44.49
61805;BME280;47725;47.912;7.356;2022-07-21T13:24:57;99611.49;;;28.54;44.48
61805;BME280;47725;47.912;7.356;2022-07-21T13:28:57;99608.59;;;28.56;44.36
61805;BME280;47725;47.912;7.356;2022-07-21T13:32:57;99605.63;;;28.58;44.56
61805;BME280;47725;47.912;7.356;2022-07-21T13:36:57;99601.97;;;28.60;44.57
61805;BME280;47725;47.912;7.356;2022-07-21T13:40:57;99599.94;;;28.64;44.97
61805;BME280;47725;47.912;7.356;2022-07-21T13:44:57;99597.66;;;28.67;45.17
61805;BME280;47725;47.912;7.356;2022-07-21T13:48:57;99595.31;;;28.70;45.02
61805;BME280;47725;47.912;7.356;2022-07-21T13:52:57;99592.78;;;28.73;44.97
61805;BME280;47725;47.912;7.356;2022-07-21T13:56:57;99590.22;;;28.75;45.06
61805;BME280;47725;47.912;7.356;2022-07-21T14:00:57;99587.36;;;28.78;45.08
61805;BME280;47725;47.912;7.356;2022-07-21T14:04:57;99583.54;;;28.79;44.92
61805;BME280;47725;47.912;7.356;2022-07-21T14:08:57;99581.49;;;28.81;44.83
61805;BME280;47725;47.912;7.356;2022-07-21T14:12:57;99579.06;;;28.82;45.01
61805;BME280;47725;47.912;7.356;2022-07-21T14:16:57;99577.06;;;28.82;45.06
61805;BME280;47725;47.912;7.356;2022-07-21T14:20:57;99575.92;;;28.82;44.93
61805;BME280;47725;47.912;7.356;2022-07-21T14:24:57;99574.16;;;28.83;44.74
61805;BME280;47725;47.912;7.356;2022-07-21T14:28:57;99573.75;;;28.83;44.85
61805;BME280;47725;47.912;7.356;2022-07-21T14:32:57;99573.44;;;28.84;44.81
61805;BME280;47725;47.912;7.356;2022-07-21T14:36:57;99573.33;;;28.83;44.86
61805;BME280;47725;47.912;7.356;2022-07-21T14:40:57;99573.33;;;28.82;44.87
61805;BME280;47725;47.912;7.356;2022-07-21T14:44:57;99571.54;;;28.81;44.82
61805;BME280;47725;47.912;7.356;2022-07-21T14:48:57;99569.33;;;28.80;44.73
61805;BME280;47725;47.912;7.356;2022-07-21T14:52:57;99566.96;;;28.79;44.70
61805;BME280;47725;47.912;7.356;2022-07-21T14:56:57;99566.38;;;28.77;44.67
61805;BME280;47725;47.912;7.356;2022-07-21T15:00:57;99565.17;;;28.76;44.62
61805;BME280;47725;47.912;7.356;2022-07-21T15:04:57;99564.47;;;28.75;44.59
61805;BME280;47725;47.912;7.356;2022-07-21T15:08:57;99561.96;;;28.74;44.52
61805;BME280;47725;47.912;7.356;2022-07-21T15:12:57;99560.10;;;28.73;44.50
61805;BME280;47725;47.912;7.356;2022-07-21T15:16:57;99557.30;;;28.72;44.48
61805;BME280;47725;47.912;7.356;2022-07-21T15:20:57;99553.45;;;28.71;44.43
61805;BME280;47725;47.912;7.356;2022-07-21T15:24:57;99548.49;;;28.70;44.41
61805;BME280;47725;47.912;7.356;2022-07-21T15:28:57;99544.36;;;28.69;44.36
61805;BME280;47725;47.912;7.356;2022-07-21T15:32:57;99540.43;;;28.69;44.32
61805;BME280;47725;47.912;7.356;2022-07-21T15:36:57;99537.81;;;28.68;44.30
61805;BME280;47725;47.912;7.356;2022-07-21T15:40:57;99535.13;;;28.67;44.23
61805;BME280;47725;47.912;7.356;2022-07-21T15:44:58;99532.45;;;28.67;44.19
61805;BME280;47725;47.912;7.356;2022-07-21T15:48:57;99529.53;;;28.67;44.17
61805;BME280;47725;47.912;7.356;2022-07-21T15:52:57;99525.51;;;28.67;44.14
61805;BME280;47725;47.912;7.356;2022-07-21T15:56:57;99522.05;;;28.66;44.14
61805;BME280;47725;47.912;7.356;2022-07-21T16:00:57;99519.97;;;28.66;44.09
61805;BME280;47725;47.912;7.356;2022-07-21T16:04:57;99517.55;;;28.65;44.08
61805;BME280;47725;47.912;7.356;2022-07-21T16:08:57;99516.51;;;28.65;44.06
61805;BME280;47725;47.912;7.356;2022-07-21T16:12:57;99515.75;;;28.65;44.02
61805;BME280;47725;47.912;7.356;2022-07-21T16:16:57;99513.67;;;28.64;44.04
61805;BME280;47725;47.912;7.356;2022-07-21T16:20:57;99512.55;;;28.63;44.07
61805;BME280;47725;47.912;7.356;2022-07-21T16:24:57;99511.21;;;28.62;44.05
61805;BME280;47725;47.912;7.356;2022-07-21T16:28:57;99510.03;;;28.62;44.02
61805;BME280;47725;47.912;7.356;2022-07-21T16:32:57;99508.92;;;28.62;44.02
61805;BME280;47725;47.912;7.356;2022-07-21T16:36:57;99508.17;;;28.61;44.02
61805;BME280;47725;47.912;7.356;2022-07-21T16:40:57;99507.05;;;28.59;44.20
61805;BME280;47725;47.912;7.356;2022-07-21T16:44:57;99505.20;;;28.57;44.20
61805;BME280;47725;47.912;7.356;2022-07-21T16:48:57;99503.49;;;28.55;44.20
61805;BME280;47725;47.912;7.356;2022-07-21T16:52:57;99501.53;;;28.54;44.16
61805;BME280;47725;47.912;7.356;2022-07-21T16:56:57;99500.62;;;28.53;44.14
61805;BME280;47725;47.912;7.356;2022-07-21T17:00:57;99499.75;;;28.52;44.16
61805;BME280;47725;47.912;7.356;2022-07-21T17:04:57;99499.17;;;28.51;44.14
61805;BME280;47725;47.912;7.356;2022-07-21T17:08:57;99499.22;;;28.51;44.10
61805;BME280;47725;47.912;7.356;2022-07-21T17:12:57;99498.63;;;28.50;44.09
61805;BME280;47725;47.912;7.356;2022-07-21T17:16:57;99498.97;;;28.51;43.95
61805;BME280;47725;47.912;7.356;2022-07-21T17:20:57;99499.50;;;28.51;43.99
61805;BME280;47725;47.912;7.356;2022-07-21T17:24:57;99499.75;;;28.52;43.97
61805;BME280;47725;47.912;7.356;2022-07-21T17:28:57;99500.17;;;28.52;43.95
61805;BME280;47725;47.912;7.356;2022-07-21T17:32:57;99500.17;;;28.52;43.94
61805;BME280;47725;47.912;7.356;2022-07-21T17:36:57;99499.75;;;28.52;43.96
61805;BME280;47725;47.912;7.356;2022-07-21T17:40:57;99498.66;;;28.51;43.93
61805;BME280;47725;47.912;7.356;2022-07-21T17:44:57;99498.83;;;28.51;43.93
61805;BME280;47725;47.912;7.356;2022-07-21T17:48:57;99498.83;;;28.51;43.94
61805;BME280;47725;47.912;7.356;2022-07-21T17:52:57;99498.08;;;28.51;43.91
61805;BME280;47725;47.912;7.356;2022-07-21T17:56:57;99498.08;;;28.51;43.91
61805;BME280;47725;47.912;7.356;2022-07-21T18:00:57;99499.30;;;28.51;43.96
61805;BME280;47725;47.912;7.356;2022-07-21T18:04:57;99501.76;;;28.51;43.87
61805;BME280;47725;47.912;7.356;2022-07-21T18:08:57;99504.68;;;28.51;43.87
61805;BME280;47725;47.912;7.356;2022-07-21T18:12:57;99507.36;;;28.51;43.87
61805;BME280;47725;47.912;7.356;2022-07-21T18:16:57;99508.44;;;28.52;43.86
61805;BME280;47725;47.912;7.356;2022-07-21T18:20:57;99508.61;;;28.52;43.83
61805;BME280;47725;47.912;7.356;2022-07-21T18:24:57;99508.48;;;28.53;43.81
61805;BME280;47725;47.912;7.356;2022-07-21T18:28:57;99508.56;;;28.53;43.80
61805;BME280;47725;47.912;7.356;2022-07-21T18:32:57;99506.72;;;28.53;43.80
61805;BME280;47725;47.912;7.356;2022-07-21T18:36:56;99504.88;;;28.53;43.80
61805;BME280;47725;47.912;7.356;2022-07-21T18:40:56;99505.55;;;28.54;43.79
61805;BME280;47725;47.912;7.356;2022-07-21T18:44:56;99505.66;;;28.54;43.80
61805;BME280;47725;47.912;7.356;2022-07-21T18:48:57;99506.34;;;28.54;43.79
61805;BME280;47725;47.912;7.356;2022-07-21T18:52:56;99507.17;;;28.54;43.75
61805;BME280;47725;47.912;7.356;2022-07-21T18:56:56;99507.00;;;28.54;43.74
61805;BME280;47725;47.912;7.356;2022-07-21T19:00:56;99507.50;;;28.54;43.76
61805;BME280;47725;47.912;7.356;2022-07-21T19:04:56;99507.81;;;28.54;43.78
61805;BME280;47725;47.912;7.356;2022-07-21T19:08:56;99508.81;;;28.53;43.76
61805;BME280;47725;47.912;7.356;2022-07-21T19:12:56;99510.49;;;28.53;43.74
61805;BME280;47725;47.912;7.356;2022-07-21T19:16:56;99512.82;;;28.53;43.74
61805;BME280;47725;47.912;7.356;2022-07-21T19:20:56;99514.83;;;28.53;43.73
61805;BME280;47725;47.912;7.356;2022-07-21T19:24:56;99516.92;;;28.53;43.73
61805;BME280;47725;47.912;7.356;2022-07-21T19:28:56;99520.34;;;28.53;43.73
61805;BME280;47725;47.912;7.356;2022-07-21T19:32:57;99522.69;;;28.53;43.69
61805;BME280;47725;47.912;7.356;2022-07-21T19:36:56;99524.44;;;28.53;43.66
61805;BME280;47725;47.912;7.356;2022-07-21T19:40:56;99526.53;;;28.54;43.66
61805;BME280;47725;47.912;7.356;2022-07-21T19:44:56;99529.33;;;28.54;43.57
61805;BME280;47725;47.912;7.356;2022-07-21T19:48:56;99531.87;;;28.54;43.80
61805;BME280;47725;47.912;7.356;2022-07-21T19:52:56;99534.55;;;28.53;43.67
61805;BME280;47725;47.912;7.356;2022-07-21T19:56:56;99538.06;;;28.53;43.68
61805;BME280;47725;47.912;7.356;2022-07-21T20:00:57;99539.90;;;28.53;43.66
61805;BME280;47725;47.912;7.356;2022-07-21T20:04:56;99542.16;;;28.54;43.61
61805;BME280;47725;47.912;7.356;2022-07-21T20:08:56;99542.94;;;28.55;43.62
61805;BME280;47725;47.912;7.356;2022-07-21T20:12:56;99544.47;;;28.51;44.04
61805;BME280;47725;47.912;7.356;2022-07-21T20:16:56;99545.40;;;28.48;44.10
61805;BME280;47725;47.912;7.356;2022-07-21T20:20:56;99545.75;;;28.45;44.13
61805;BME280;47725;47.912;7.356;2022-07-21T20:24:56;99546.72;;;28.43;44.12
61805;BME280;47725;47.912;7.356;2022-07-21T20:28:56;99546.58;;;28.42;44.13
61805;BME280;47725;47.912;7.356;2022-07-21T20:32:56;99549.34;;;28.31;45.30
61805;BME280;47725;47.912;7.356;2022-07-21T20:36:56;99550.94;;;28.19;45.40
61805;BME280;47725;47.912;7.356;2022-07-21T20:40:56;99553.02;;;28.12;45.42
61805;BME280;47725;47.912;7.356;2022-07-21T20:44:56;99553.92;;;28.04;45.49
61805;BME280;47725;47.912;7.356;2022-07-21T20:48:56;99555.39;;;27.99;45.50
61805;BME280;47725;47.912;7.356;2022-07-21T20:52:56;99556.84;;;27.94;45.48
61805;BME280;47725;47.912;7.356;2022-07-21T20:56:56;99559.01;;;27.91;45.45
61805;BME280;47725;47.912;7.356;2022-07-21T21:00:56;99561.86;;;27.91;45.22
61805;BME280;47725;47.912;7.356;2022-07-21T21:04:56;99562.73;;;27.90;45.36
61805;BME280;47725;47.912;7.356;2022-07-21T21:08:56;99564.62;;;27.88;45.40
61805;BME280;47725;47.912;7.356;2022-07-21T21:12:56;99565.84;;;27.87;45.50
61805;BME280;47725;47.912;7.356;2022-07-21T21:16:56;99567.38;;;27.85;45.52